EGSH - Norwich Weather Centre
Distance from station: E 5mi, 14km
Updated: 12/13/2017 11:50pm
Mostly Cloudy
Mostly Cloudy
 Wind from WSW
Wind: WSW 15 mph , 24 km/h
Temperature: 37°F , 3°C
Wind Chill: 28°F , -2°C
Dew Point: 36°F , 2°C
Humidity: 93%
Barometer: 29.21 inHg , 989 hPa
Clouds: Mostly Cloudy
Visibility: 6 miles , 10 km
Cloud details: Few Clouds 800 ft
Mostly Cloudy 2000 ft
2017/12/14 07:50 EGSH 140750Z 24013KT 9999 FEW008 BKN020 03/02 Q0989 NOSIG